sensor_id;sensor_type;location;lat;lon;timestamp;temperature;humidity
66740;DHT22;53653;52.188;8.602;2022-08-21T00:02:23;17.71;76.55
66740;DHT22;53653;52.188;8.602;2022-08-21T00:04:49;17.75;76.47
66740;DHT22;53653;52.188;8.602;2022-08-21T00:07:16;17.74;76.71
66740;DHT22;53653;52.188;8.602;2022-08-21T00:09:42;17.61;77.57
66740;DHT22;53653;52.188;8.602;2022-08-21T00:12:07;17.41;78.33
66740;DHT22;53653;52.188;8.602;2022-08-21T00:14:33;17.27;78.79
66740;DHT22;53653;52.188;8.602;2022-08-21T00:17:00;17.20;79.22
66740;DHT22;53653;52.188;8.602;2022-08-21T00:19:26;17.13;79.48
66740;DHT22;53653;52.188;8.602;2022-08-21T00:21:53;17.10;79.74
66740;DHT22;53653;52.188;8.602;2022-08-21T00:24:21;17.06;79.83
66740;DHT22;53653;52.188;8.602;2022-08-21T00:26:46;16.97;80.06
66740;DHT22;53653;52.188;8.602;2022-08-21T00:29:13;16.91;80.31
66740;DHT22;53653;52.188;8.602;2022-08-21T00:31:39;16.94;79.99
66740;DHT22;53653;52.188;8.602;2022-08-21T00:34:04;17.06;79.43
66740;DHT22;53653;52.188;8.602;2022-08-21T00:36:30;17.18;78.44
66740;DHT22;53653;52.188;8.602;2022-08-21T00:38:56;17.24;78.28
66740;DHT22;53653;52.188;8.602;2022-08-21T00:41:22;17.24;78.37
66740;DHT22;53653;52.188;8.602;2022-08-21T00:43:49;17.37;77.63
66740;DHT22;53653;52.188;8.602;2022-08-21T00:46:16;17.45;77.21
66740;DHT22;53653;52.188;8.602;2022-08-21T00:48:41;17.48;77.09
66740;DHT22;53653;52.188;8.602;2022-08-21T00:51:11;17.52;76.95
66740;DHT22;53653;52.188;8.602;2022-08-21T00:53:39;17.56;76.73
66740;DHT22;53653;52.188;8.602;2022-08-21T00:56:07;17.59;76.11
66740;DHT22;53653;52.188;8.602;2022-08-21T00:58:35;17.59;76.69
66740;DHT22;53653;52.188;8.602;2022-08-21T01:01:03;17.41;77.05
66740;DHT22;53653;52.188;8.602;2022-08-21T01:03:29;17.21;77.70
66740;DHT22;53653;52.188;8.602;2022-08-21T01:05:55;17.06;78.48
66740;DHT22;53653;52.188;8.602;2022-08-21T01:08:21;16.86;78.64
66740;DHT22;53653;52.188;8.602;2022-08-21T01:10:48;16.63;79.56
66740;DHT22;53653;52.188;8.602;2022-08-21T01:13:15;16.55;80.15
66740;DHT22;53653;52.188;8.602;2022-08-21T01:15:44;16.48;80.31
66740;DHT22;53653;52.188;8.602;2022-08-21T01:18:12;16.41;81.01
66740;DHT22;53653;52.188;8.602;2022-08-21T01:20:44;16.39;81.28
66740;DHT22;53653;52.188;8.602;2022-08-21T01:23:11;16.39;80.86
66740;DHT22;53653;52.188;8.602;2022-08-21T01:25:36;16.39;80.90
66740;DHT22;53653;52.188;8.602;2022-08-21T01:28:09;16.48;80.84
66740;DHT22;53653;52.188;8.602;2022-08-21T01:30:35;16.45;80.95
66740;DHT22;53653;52.188;8.602;2022-08-21T01:33:02;16.31;82.03
66740;DHT22;53653;52.188;8.602;2022-08-21T01:35:27;16.05;83.09
66740;DHT22;53653;52.188;8.602;2022-08-21T01:37:53;15.83;84.25
66740;DHT22;53653;52.188;8.602;2022-08-21T01:40:18;15.83;84.33
66740;DHT22;53653;52.188;8.602;2022-08-21T01:42:47;16.05;83.82
66740;DHT22;53653;52.188;8.602;2022-08-21T01:45:15;16.24;82.83
66740;DHT22;53653;52.188;8.602;2022-08-21T01:47:41;16.18;83.73
66740;DHT22;53653;52.188;8.602;2022-08-21T01:50:09;15.97;84.37
66740;DHT22;53653;52.188;8.602;2022-08-21T01:52:35;15.94;85.02
66740;DHT22;53653;52.188;8.602;2022-08-21T01:55:01;16.04;84.95
66740;DHT22;53653;52.188;8.602;2022-08-21T01:57:26;16.11;84.64
66740;DHT22;53653;52.188;8.602;2022-08-21T01:59:52;16.31;83.29
66740;DHT22;53653;52.188;8.602;2022-08-21T02:02:18;16.48;82.16
66740;DHT22;53653;52.188;8.602;2022-08-21T02:04:43;16.60;81.77
66740;DHT22;53653;52.188;8.602;2022-08-21T02:07:08;16.66;81.99
66740;DHT22;53653;52.188;8.602;2022-08-21T02:09:34;16.69;81.66
66740;DHT22;53653;52.188;8.602;2022-08-21T02:11:59;16.70;81.86
66740;DHT22;53653;52.188;8.602;2022-08-21T02:14:25;16.75;81.72
66740;DHT22;53653;52.188;8.602;2022-08-21T02:16:50;16.84;81.32
66740;DHT22;53653;52.188;8.602;2022-08-21T02:19:16;16.84;81.44
66740;DHT22;53653;52.188;8.602;2022-08-21T02:21:42;16.79;82.20
66740;DHT22;53653;52.188;8.602;2022-08-21T02:24:08;16.90;81.93
66740;DHT22;53653;52.188;8.602;2022-08-21T02:26:34;16.91;81.33
66740;DHT22;53653;52.188;8.602;2022-08-21T02:28:59;16.90;81.71
66740;DHT22;53653;52.188;8.602;2022-08-21T02:31:25;16.87;82.27
66740;DHT22;53653;52.188;8.602;2022-08-21T02:33:51;16.58;83.50
66740;DHT22;53653;52.188;8.602;2022-08-21T02:36:19;16.62;83.18
66740;DHT22;53653;52.188;8.602;2022-08-21T02:38:44;16.69;82.40
66740;DHT22;53653;52.188;8.602;2022-08-21T02:41:16;16.76;82.50
66740;DHT22;53653;52.188;8.602;2022-08-21T02:43:42;16.83;82.33
66740;DHT22;53653;52.188;8.602;2022-08-21T02:46:09;16.86;82.04
66740;DHT22;53653;52.188;8.602;2022-08-21T02:48:35;16.87;81.66
66740;DHT22;53653;52.188;8.602;2022-08-21T02:51:08;16.80;82.31
66740;DHT22;53653;52.188;8.602;2022-08-21T02:53:34;16.83;82.04
66740;DHT22;53653;52.188;8.602;2022-08-21T02:56:03;16.81;81.65
66740;DHT22;53653;52.188;8.602;2022-08-21T02:58:38;16.80;81.92
66740;DHT22;53653;52.188;8.602;2022-08-21T03:01:07;16.76;81.99
66740;DHT22;53653;52.188;8.602;2022-08-21T03:03:38;16.73;81.77
66740;DHT22;53653;52.188;8.602;2022-08-21T03:06:05;16.77;81.82
66740;DHT22;53653;52.188;8.602;2022-08-21T03:08:31;16.77;81.71
66740;DHT22;53653;52.188;8.602;2022-08-21T03:10:56;16.75;81.79
66740;DHT22;53653;52.188;8.602;2022-08-21T03:13:22;16.75;80.76
66740;DHT22;53653;52.188;8.602;2022-08-21T03:15:49;16.68;81.05
66740;DHT22;53653;52.188;8.602;2022-08-21T03:18:15;16.60;81.63
66740;DHT22;53653;52.188;8.602;2022-08-21T03:20:42;16.51;81.86
66740;DHT22;53653;52.188;8.602;2022-08-21T03:23:08;16.45;82.02
66740;DHT22;53653;52.188;8.602;2022-08-21T03:25:35;16.38;82.16
66740;DHT22;53653;52.188;8.602;2022-08-21T03:28:02;16.38;82.29
66740;DHT22;53653;52.188;8.602;2022-08-21T03:30:29;16.35;82.27
66740;DHT22;53653;52.188;8.602;2022-08-21T03:32:57;16.07;84.04
66740;DHT22;53653;52.188;8.602;2022-08-21T03:35:23;16.04;84.15
66740;DHT22;53653;52.188;8.602;2022-08-21T03:37:49;16.07;84.03
66740;DHT22;53653;52.188;8.602;2022-08-21T03:40:16;16.08;83.83
66740;DHT22;53653;52.188;8.602;2022-08-21T03:42:42;16.08;83.88
66740;DHT22;53653;52.188;8.602;2022-08-21T03:45:09;16.10;83.91
66740;DHT22;53653;52.188;8.602;2022-08-21T03:47:35;16.20;83.34
66740;DHT22;53653;52.188;8.602;2022-08-21T03:50:03;16.25;83.05
66740;DHT22;53653;52.188;8.602;2022-08-21T03:52:29;16.29;83.01
66740;DHT22;53653;52.188;8.602;2022-08-21T03:54:55;16.31;83.07
66740;DHT22;53653;52.188;8.602;2022-08-21T03:57:20;16.22;83.33
66740;DHT22;53653;52.188;8.602;2022-08-21T03:59:46;16.18;83.97
66740;DHT22;53653;52.188;8.602;2022-08-21T04:02:21;16.07;84.22
66740;DHT22;53653;52.188;8.602;2022-08-21T04:04:47;16.04;84.62
66740;DHT22;53653;52.188;8.602;2022-08-21T04:07:12;15.91;85.41
66740;DHT22;53653;52.188;8.602;2022-08-21T04:09:38;15.98;85.12
66740;DHT22;53653;52.188;8.602;2022-08-21T04:12:06;16.01;84.95
66740;DHT22;53653;52.188;8.602;2022-08-21T04:14:32;16.07;84.75
66740;DHT22;53653;52.188;8.602;2022-08-21T04:16:57;16.02;84.72
66740;DHT22;53653;52.188;8.602;2022-08-21T04:19:23;16.02;84.79
66740;DHT22;53653;52.188;8.602;2022-08-21T04:21:48;15.97;85.32
66740;DHT22;53653;52.188;8.602;2022-08-21T04:24:15;15.97;85.25
66740;DHT22;53653;52.188;8.602;2022-08-21T04:26:40;15.91;85.69
66740;DHT22;53653;52.188;8.602;2022-08-21T04:29:05;15.87;85.92
66740;DHT22;53653;52.188;8.602;2022-08-21T04:31:35;15.77;86.07
66740;DHT22;53653;52.188;8.602;2022-08-21T04:34:03;15.67;86.48
66740;DHT22;53653;52.188;8.602;2022-08-21T04:36:30;15.54;86.89
66740;DHT22;53653;52.188;8.602;2022-08-21T04:38:55;15.63;86.97
66740;DHT22;53653;52.188;8.602;2022-08-21T04:41:21;15.73;86.41
66740;DHT22;53653;52.188;8.602;2022-08-21T04:43:46;15.77;85.82
66740;DHT22;53653;52.188;8.602;2022-08-21T04:46:12;15.76;85.98
66740;DHT22;53653;52.188;8.602;2022-08-21T04:48:37;15.79;85.97
66740;DHT22;53653;52.188;8.602;2022-08-21T04:53:45;15.71;86.05
66740;DHT22;53653;52.188;8.602;2022-08-21T04:56:13;15.67;86.50
66740;DHT22;53653;52.188;8.602;2022-08-21T04:58:40;15.76;85.92
66740;DHT22;53653;52.188;8.602;2022-08-21T05:01:12;15.81;85.75
66740;DHT22;53653;52.188;8.602;2022-08-21T05:03:38;15.90;85.47
66740;DHT22;53653;52.188;8.602;2022-08-21T05:06:10;16.08;84.77
66740;DHT22;53653;52.188;8.602;2022-08-21T05:08:37;16.33;84.01
66740;DHT22;53653;52.188;8.602;2022-08-21T05:11:03;16.49;82.92
66740;DHT22;53653;52.188;8.602;2022-08-21T05:13:29;16.58;82.66
66740;DHT22;53653;52.188;8.602;2022-08-21T05:15:55;16.59;82.99
66740;DHT22;53653;52.188;8.602;2022-08-21T05:18:20;16.76;82.33
66740;DHT22;53653;52.188;8.602;2022-08-21T05:20:46;16.76;81.74
66740;DHT22;53653;52.188;8.602;2022-08-21T05:23:13;16.89;81.41
66740;DHT22;53653;52.188;8.602;2022-08-21T05:25:39;16.81;81.86
66740;DHT22;53653;52.188;8.602;2022-08-21T05:28:05;16.80;81.90
66740;DHT22;53653;52.188;8.602;2022-08-21T05:30:32;17.07;81.33
66740;DHT22;53653;52.188;8.602;2022-08-21T05:32:58;17.28;80.31
66740;DHT22;53653;52.188;8.602;2022-08-21T05:35:25;17.26;80.82
66740;DHT22;53653;52.188;8.602;2022-08-21T05:37:50;17.39;79.99
66740;DHT22;53653;52.188;8.602;2022-08-21T05:40:16;17.55;79.36
66740;DHT22;53653;52.188;8.602;2022-08-21T05:42:41;17.48;80.15
66740;DHT22;53653;52.188;8.602;2022-08-21T05:45:07;17.51;79.93
66740;DHT22;53653;52.188;8.602;2022-08-21T05:47:32;17.61;79.54
66740;DHT22;53653;52.188;8.602;2022-08-21T05:49:58;17.71;79.06
66740;DHT22;53653;52.188;8.602;2022-08-21T05:52:23;17.79;79.19
66740;DHT22;53653;52.188;8.602;2022-08-21T05:54:49;17.96;78.64
66740;DHT22;53653;52.188;8.602;2022-08-21T05:57:15;17.96;78.34
66740;DHT22;53653;52.188;8.602;2022-08-21T05:59:41;18.32;77.41
66740;DHT22;53653;52.188;8.602;2022-08-21T06:02:06;18.41;76.98
66740;DHT22;53653;52.188;8.602;2022-08-21T06:04:37;18.61;76.49
66740;DHT22;53653;52.188;8.602;2022-08-21T06:07:03;18.92;75.37
66740;DHT22;53653;52.188;8.602;2022-08-21T06:09:28;18.95;75.62
66740;DHT22;53653;52.188;8.602;2022-08-21T06:11:54;19.13;74.66
66740;DHT22;53653;52.188;8.602;2022-08-21T06:14:19;19.53;74.28
66740;DHT22;53653;52.188;8.602;2022-08-21T06:16:45;19.95;72.28
66740;DHT22;53653;52.188;8.602;2022-08-21T06:19:10;20.30;71.28
66740;DHT22;53653;52.188;8.602;2022-08-21T06:21:35;20.21;71.17
66740;DHT22;53653;52.188;8.602;2022-08-21T06:24:01;19.40;73.50
66740;DHT22;53653;52.188;8.602;2022-08-21T06:26:26;19.47;73.17
66740;DHT22;53653;52.188;8.602;2022-08-21T06:28:53;19.59;72.68
66740;DHT22;53653;52.188;8.602;2022-08-21T06:31:24;19.33;73.64
66740;DHT22;53653;52.188;8.602;2022-08-21T06:33:50;19.68;71.97
66740;DHT22;53653;52.188;8.602;2022-08-21T06:36:18;19.74;72.13
66740;DHT22;53653;52.188;8.602;2022-08-21T06:38:43;19.77;71.86
66740;DHT22;53653;52.188;8.602;2022-08-21T06:41:10;20.24;70.59
66740;DHT22;53653;52.188;8.602;2022-08-21T06:43:36;20.15;70.03
66740;DHT22;53653;52.188;8.602;2022-08-21T06:46:01;20.37;69.83
66740;DHT22;53653;52.188;8.602;2022-08-21T06:48:27;20.95;68.09
66740;DHT22;53653;52.188;8.602;2022-08-21T06:50:52;21.10;67.03
66740;DHT22;53653;52.188;8.602;2022-08-21T06:53:19;21.62;66.35
66740;DHT22;53653;52.188;8.602;2022-08-21T06:55:46;21.83;65.18
66740;DHT22;53653;52.188;8.602;2022-08-21T06:58:12;21.59;66.51
66740;DHT22;53653;52.188;8.602;2022-08-21T07:00:42;22.17;63.98
66740;DHT22;53653;52.188;8.602;2022-08-21T07:03:15;21.82;62.67
66740;DHT22;53653;52.188;8.602;2022-08-21T07:05:43;21.92;63.95
66740;DHT22;53653;52.188;8.602;2022-08-21T07:08:09;22.30;63.17
66740;DHT22;53653;52.188;8.602;2022-08-21T07:10:34;22.51;61.61
66740;DHT22;53653;52.188;8.602;2022-08-21T07:13:00;22.13;62.18
66740;DHT22;53653;52.188;8.602;2022-08-21T07:15:25;22.01;62.39
66740;DHT22;53653;52.188;8.602;2022-08-21T07:17:51;21.96;63.58
66740;DHT22;53653;52.188;8.602;2022-08-21T07:20:17;21.99;62.08
66740;DHT22;53653;52.188;8.602;2022-08-21T07:22:42;22.59;60.89
66740;DHT22;53653;52.188;8.602;2022-08-21T07:25:09;22.91;59.43
66740;DHT22;53653;52.188;8.602;2022-08-21T07:27:34;23.28;58.94
66740;DHT22;53653;52.188;8.602;2022-08-21T07:30:00;23.47;58.54
66740;DHT22;53653;52.188;8.602;2022-08-21T07:32:25;23.53;57.90
66740;DHT22;53653;52.188;8.602;2022-08-21T07:34:51;23.55;58.32
66740;DHT22;53653;52.188;8.602;2022-08-21T07:37:16;24.09;55.61
66740;DHT22;53653;52.188;8.602;2022-08-21T07:39:41;24.23;54.82
66740;DHT22;53653;52.188;8.602;2022-08-21T07:42:07;23.86;56.39
66740;DHT22;53653;52.188;8.602;2022-08-21T07:44:33;23.85;55.87
66740;DHT22;53653;52.188;8.602;2022-08-21T07:47:00;23.82;55.43
66740;DHT22;53653;52.188;8.602;2022-08-21T07:49:27;24.06;53.65
66740;DHT22;53653;52.188;8.602;2022-08-21T07:51:52;24.28;53.10
66740;DHT22;53653;52.188;8.602;2022-08-21T07:54:18;24.55;52.96
66740;DHT22;53653;52.188;8.602;2022-08-21T07:56:43;24.69;53.51
66740;DHT22;53653;52.188;8.602;2022-08-21T07:59:11;24.81;52.48
66740;DHT22;53653;52.188;8.602;2022-08-21T08:01:37;24.92;51.30
66740;DHT22;53653;52.188;8.602;2022-08-21T08:04:03;24.84;51.19
66740;DHT22;53653;52.188;8.602;2022-08-21T08:06:29;25.01;51.82
66740;DHT22;53653;52.188;8.602;2022-08-21T08:08:55;24.64;51.63
66740;DHT22;53653;52.188;8.602;2022-08-21T08:11:21;24.56;51.24
66740;DHT22;53653;52.188;8.602;2022-08-21T08:13:49;24.84;48.90
66740;DHT22;53653;52.188;8.602;2022-08-21T08:16:16;25.18;48.75
66740;DHT22;53653;52.188;8.602;2022-08-21T08:18:42;25.27;49.18
66740;DHT22;53653;52.188;8.602;2022-08-21T08:21:08;25.07;49.54
66740;DHT22;53653;52.188;8.602;2022-08-21T08:23:35;25.21;49.65
66740;DHT22;53653;52.188;8.602;2022-08-21T08:26:00;25.24;48.73
66740;DHT22;53653;52.188;8.602;2022-08-21T08:28:28;24.84;48.85
66740;DHT22;53653;52.188;8.602;2022-08-21T08:30:54;25.07;48.03
66740;DHT22;53653;52.188;8.602;2022-08-21T08:33:21;24.83;48.37
66740;DHT22;53653;52.188;8.602;2022-08-21T08:35:49;24.97;49.01
66740;DHT22;53653;52.188;8.602;2022-08-21T08:38:16;25.35;47.76
66740;DHT22;53653;52.188;8.602;2022-08-21T08:43:17;25.70;47.10
66740;DHT22;53653;52.188;8.602;2022-08-21T08:45:46;25.83;47.04
66740;DHT22;53653;52.188;8.602;2022-08-21T08:48:15;25.89;45.68
66740;DHT22;53653;52.188;8.602;2022-08-21T08:50:55;26.10;45.27
66740;DHT22;53653;52.188;8.602;2022-08-21T08:53:34;26.16;44.06
66740;DHT22;53653;52.188;8.602;2022-08-21T08:56:01;26.01;44.28
66740;DHT22;53653;52.188;8.602;2022-08-21T08:58:32;25.75;44.06
66740;DHT22;53653;52.188;8.602;2022-08-21T09:00:58;25.49;44.16
66740;DHT22;53653;52.188;8.602;2022-08-21T09:03:25;25.06;46.05
66740;DHT22;53653;52.188;8.602;2022-08-21T09:14:10;25.56;43.87
66740;DHT22;53653;52.188;8.602;2022-08-21T09:22:19;26.31;43.83
66740;DHT22;53653;52.188;8.602;2022-08-21T09:27:18;26.64;41.74
66740;DHT22;53653;52.188;8.602;2022-08-21T09:29:52;26.54;42.74
66740;DHT22;53653;52.188;8.602;2022-08-21T09:32:29;25.65;43.45
66740;DHT22;53653;52.188;8.602;2022-08-21T09:35:16;24.61;45.26
66740;DHT22;53653;52.188;8.602;2022-08-21T09:38:00;24.94;45.14
66740;DHT22;53653;52.188;8.602;2022-08-21T09:43:05;25.75;43.13
66740;DHT22;53653;52.188;8.602;2022-08-21T09:45:32;26.12;42.87
66740;DHT22;53653;52.188;8.602;2022-08-21T09:48:18;26.06;42.63
66740;DHT22;53653;52.188;8.602;2022-08-21T09:50:45;26.45;42.65
66740;DHT22;53653;52.188;8.602;2022-08-21T09:53:21;26.54;41.81
66740;DHT22;53653;52.188;8.602;2022-08-21T09:55:59;26.24;42.27
66740;DHT22;53653;52.188;8.602;2022-08-21T09:58:47;25.87;43.04
66740;DHT22;53653;52.188;8.602;2022-08-21T10:01:17;26.41;42.45
66740;DHT22;53653;52.188;8.602;2022-08-21T10:03:46;26.37;41.97
66740;DHT22;53653;52.188;8.602;2022-08-21T10:06:25;26.03;42.08
66740;DHT22;53653;52.188;8.602;2022-08-21T10:09:13;26.13;42.14
66740;DHT22;53653;52.188;8.602;2022-08-21T10:11:39;26.54;42.41
66740;DHT22;53653;52.188;8.602;2022-08-21T10:14:53;26.91;42.37
66740;DHT22;53653;52.188;8.602;2022-08-21T10:18:18;26.83;41.91
66740;DHT22;53653;52.188;8.602;2022-08-21T10:20:29;25.65;43.81
66740;DHT22;53653;52.188;8.602;2022-08-21T10:25:47;25.82;43.51
66740;DHT22;53653;52.188;8.602;2022-08-21T10:31:15;26.48;42.98
66740;DHT22;53653;52.188;8.602;2022-08-21T10:36:34;25.86;44.31
66740;DHT22;53653;52.188;8.602;2022-08-21T10:39:19;26.41;43.44
66740;DHT22;53653;52.188;8.602;2022-08-21T10:47:40;25.83;44.27
66740;DHT22;53653;52.188;8.602;2022-08-21T10:50:30;26.18;44.21
66740;DHT22;53653;52.188;8.602;2022-08-21T10:55:55;26.51;42.99
66740;DHT22;53653;52.188;8.602;2022-08-21T11:00:58;27.10;43.08
66740;DHT22;53653;52.188;8.602;2022-08-21T11:03:33;27.47;41.99
66740;DHT22;53653;52.188;8.602;2022-08-21T11:08:35;27.64;40.87
66740;DHT22;53653;52.188;8.602;2022-08-21T11:11:12;26.82;42.26
66740;DHT22;53653;52.188;8.602;2022-08-21T11:13:43;26.43;43.25
66740;DHT22;53653;52.188;8.602;2022-08-21T11:16:41;27.13;41.72
66740;DHT22;53653;52.188;8.602;2022-08-21T11:29:47;26.45;42.89
66740;DHT22;53653;52.188;8.602;2022-08-21T11:38:27;26.85;42.08
66740;DHT22;53653;52.188;8.602;2022-08-21T11:43:38;26.79;42.31
66740;DHT22;53653;52.188;8.602;2022-08-21T11:57:14;27.70;39.01
66740;DHT22;53653;52.188;8.602;2022-08-21T11:59:46;27.31;38.81
66740;DHT22;53653;52.188;8.602;2022-08-21T12:02:18;27.51;39.59
66740;DHT22;53653;52.188;8.602;2022-08-21T12:04:56;27.76;39.30
66740;DHT22;53653;52.188;8.602;2022-08-21T12:10:06;27.64;40.03
66740;DHT22;53653;52.188;8.602;2022-08-21T12:12:35;27.41;39.21
66740;DHT22;53653;52.188;8.602;2022-08-21T12:15:25;27.77;38.98
66740;DHT22;53653;52.188;8.602;2022-08-21T12:18:00;27.68;38.85
66740;DHT22;53653;52.188;8.602;2022-08-21T12:28:12;28.47;38.45
66740;DHT22;53653;52.188;8.602;2022-08-21T12:30:41;28.66;38.33
66740;DHT22;53653;52.188;8.602;2022-08-21T12:35:43;28.50;38.34
66740;DHT22;53653;52.188;8.602;2022-08-21T12:38:14;28.32;38.86
66740;DHT22;53653;52.188;8.602;2022-08-21T12:43:16;27.64;41.10
66740;DHT22;53653;52.188;8.602;2022-08-21T12:45:46;27.98;39.24
66740;DHT22;53653;52.188;8.602;2022-08-21T12:48:22;28.28;38.93
66740;DHT22;53653;52.188;8.602;2022-08-21T12:51:22;28.35;38.42
66740;DHT22;53653;52.188;8.602;2022-08-21T12:56:17;28.20;38.29
66740;DHT22;53653;52.188;8.602;2022-08-21T12:58:55;27.50;39.54
66740;DHT22;53653;52.188;8.602;2022-08-21T13:02:09;27.34;39.86
66740;DHT22;53653;52.188;8.602;2022-08-21T13:04:16;27.22;39.80
66740;DHT22;53653;52.188;8.602;2022-08-21T13:06:45;27.70;39.13
66740;DHT22;53653;52.188;8.602;2022-08-21T13:09:15;28.10;37.00
66740;DHT22;53653;52.188;8.602;2022-08-21T13:11:45;28.20;36.94
66740;DHT22;53653;52.188;8.602;2022-08-21T13:14:34;28.15;37.17
66740;DHT22;53653;52.188;8.602;2022-08-21T13:17:05;27.98;38.20
66740;DHT22;53653;52.188;8.602;2022-08-21T13:19:31;27.99;37.26
66740;DHT22;53653;52.188;8.602;2022-08-21T13:21:58;28.26;37.19
66740;DHT22;53653;52.188;8.602;2022-08-21T13:24:25;28.64;36.55
66740;DHT22;53653;52.188;8.602;2022-08-21T13:26:53;28.39;36.85
66740;DHT22;53653;52.188;8.602;2022-08-21T13:29:22;28.18;37.18
66740;DHT22;53653;52.188;8.602;2022-08-21T13:32:16;27.57;37.49
66740;DHT22;53653;52.188;8.602;2022-08-21T13:34:43;27.23;38.88
66740;DHT22;53653;52.188;8.602;2022-08-21T13:37:11;27.22;38.25
66740;DHT22;53653;52.188;8.602;2022-08-21T13:39:37;27.27;38.85
66740;DHT22;53653;52.188;8.602;2022-08-21T13:42:10;27.24;38.55
66740;DHT22;53653;52.188;8.602;2022-08-21T13:44:40;27.14;38.63
66740;DHT22;53653;52.188;8.602;2022-08-21T13:47:11;27.43;37.59
66740;DHT22;53653;52.188;8.602;2022-08-21T13:49:44;27.84;37.44
66740;DHT22;53653;52.188;8.602;2022-08-21T13:52:18;27.84;37.51
66740;DHT22;53653;52.188;8.602;2022-08-21T13:54:52;27.74;37.60
66740;DHT22;53653;52.188;8.602;2022-08-21T13:57:24;27.54;37.71
66740;DHT22;53653;52.188;8.602;2022-08-21T13:59:50;27.40;37.78
66740;DHT22;53653;52.188;8.602;2022-08-21T14:02:23;27.07;38.76
66740;DHT22;53653;52.188;8.602;2022-08-21T14:04:58;27.02;38.77
66740;DHT22;53653;52.188;8.602;2022-08-21T14:07:34;27.17;39.01
66740;DHT22;53653;52.188;8.602;2022-08-21T14:10:05;27.24;39.01
66740;DHT22;53653;52.188;8.602;2022-08-21T14:12:41;27.33;39.20
66740;DHT22;53653;52.188;8.602;2022-08-21T14:15:09;27.43;38.33
66740;DHT22;53653;52.188;8.602;2022-08-21T14:17:38;27.76;38.23
66740;DHT22;53653;52.188;8.602;2022-08-21T14:20:10;27.95;37.59
66740;DHT22;53653;52.188;8.602;2022-08-21T14:22:43;27.82;36.77
66740;DHT22;53653;52.188;8.602;2022-08-21T14:25:29;27.53;36.49
66740;DHT22;53653;52.188;8.602;2022-08-21T14:30:33;27.46;36.79
66740;DHT22;53653;52.188;8.602;2022-08-21T14:33:00;27.67;36.53
66740;DHT22;53653;52.188;8.602;2022-08-21T14:35:26;27.88;35.83
66740;DHT22;53653;52.188;8.602;2022-08-21T14:37:52;27.88;35.93
66740;DHT22;53653;52.188;8.602;2022-08-21T14:40:19;27.81;35.72
66740;DHT22;53653;52.188;8.602;2022-08-21T14:42:45;27.60;35.87
66740;DHT22;53653;52.188;8.602;2022-08-21T14:45:17;27.58;36.04
66740;DHT22;53653;52.188;8.602;2022-08-21T14:47:44;27.37;35.38
66740;DHT22;53653;52.188;8.602;2022-08-21T14:50:11;27.14;35.65
66740;DHT22;53653;52.188;8.602;2022-08-21T14:52:37;27.02;35.80
66740;DHT22;53653;52.188;8.602;2022-08-21T14:55:04;26.67;35.97
66740;DHT22;53653;52.188;8.602;2022-08-21T14:57:30;26.59;36.24
66740;DHT22;53653;52.188;8.602;2022-08-21T14:59:56;26.68;36.68
66740;DHT22;53653;52.188;8.602;2022-08-21T15:02:22;26.86;36.41
66740;DHT22;53653;52.188;8.602;2022-08-21T15:04:48;26.83;36.35
66740;DHT22;53653;52.188;8.602;2022-08-21T15:07:13;26.98;35.93
66740;DHT22;53653;52.188;8.602;2022-08-21T15:09:39;27.03;36.27
66740;DHT22;53653;52.188;8.602;2022-08-21T15:12:05;26.99;35.77
66740;DHT22;53653;52.188;8.602;2022-08-21T15:14:34;26.81;36.15
66740;DHT22;53653;52.188;8.602;2022-08-21T15:17:00;26.68;36.82
66740;DHT22;53653;52.188;8.602;2022-08-21T15:19:28;26.72;37.09
66740;DHT22;53653;52.188;8.602;2022-08-21T15:21:54;26.78;37.24
66740;DHT22;53653;52.188;8.602;2022-08-21T15:24:20;26.51;38.08
66740;DHT22;53653;52.188;8.602;2022-08-21T15:26:46;26.47;38.54
66740;DHT22;53653;52.188;8.602;2022-08-21T15:29:12;26.45;38.37
66740;DHT22;53653;52.188;8.602;2022-08-21T15:31:50;26.37;38.67
66740;DHT22;53653;52.188;8.602;2022-08-21T15:34:17;26.23;39.14
66740;DHT22;53653;52.188;8.602;2022-08-21T15:36:43;26.10;39.63
66740;DHT22;53653;52.188;8.602;2022-08-21T15:39:08;26.06;39.84
66740;DHT22;53653;52.188;8.602;2022-08-21T15:41:36;26.06;39.99
66740;DHT22;53653;52.188;8.602;2022-08-21T15:44:02;26.16;39.95
66740;DHT22;53653;52.188;8.602;2022-08-21T15:46:27;26.21;39.74
66740;DHT22;53653;52.188;8.602;2022-08-21T15:48:53;26.10;39.67
66740;DHT22;53653;52.188;8.602;2022-08-21T15:51:18;25.96;40.07
66740;DHT22;53653;52.188;8.602;2022-08-21T15:53:44;26.00;40.66
66740;DHT22;53653;52.188;8.602;2022-08-21T15:56:34;26.13;40.57
66740;DHT22;53653;52.188;8.602;2022-08-21T15:59:03;26.28;39.46
66740;DHT22;53653;52.188;8.602;2022-08-21T16:01:30;26.37;39.40
66740;DHT22;53653;52.188;8.602;2022-08-21T16:03:55;26.37;39.68
66740;DHT22;53653;52.188;8.602;2022-08-21T16:06:21;26.52;39.75
66740;DHT22;53653;52.188;8.602;2022-08-21T16:08:46;27.00;38.61
66740;DHT22;53653;52.188;8.602;2022-08-21T16:11:13;27.31;37.63
66740;DHT22;53653;52.188;8.602;2022-08-21T16:13:41;27.87;36.47
66740;DHT22;53653;52.188;8.602;2022-08-21T16:16:10;27.68;37.06
66740;DHT22;53653;52.188;8.602;2022-08-21T16:18:36;26.99;37.98
66740;DHT22;53653;52.188;8.602;2022-08-21T16:21:02;26.67;38.41
66740;DHT22;53653;52.188;8.602;2022-08-21T16:23:28;26.43;37.55
66740;DHT22;53653;52.188;8.602;2022-08-21T16:25:53;26.37;37.37
66740;DHT22;53653;52.188;8.602;2022-08-21T16:28:20;26.28;36.32
66740;DHT22;53653;52.188;8.602;2022-08-21T16:30:47;26.33;36.82
66740;DHT22;53653;52.188;8.602;2022-08-21T16:35:55;26.25;37.26
66740;DHT22;53653;52.188;8.602;2022-08-21T16:38:21;26.25;37.55
66740;DHT22;53653;52.188;8.602;2022-08-21T16:40:47;26.17;37.89
66740;DHT22;53653;52.188;8.602;2022-08-21T16:43:13;25.93;38.15
66740;DHT22;53653;52.188;8.602;2022-08-21T16:45:40;25.92;38.37
66740;DHT22;53653;52.188;8.602;2022-08-21T16:48:06;25.77;38.25
66740;DHT22;53653;52.188;8.602;2022-08-21T16:50:34;25.72;38.66
66740;DHT22;53653;52.188;8.602;2022-08-21T16:53:00;25.70;39.04
66740;DHT22;53653;52.188;8.602;2022-08-21T16:55:26;25.75;38.83
66740;DHT22;53653;52.188;8.602;2022-08-21T16:57:53;25.86;38.66
66740;DHT22;53653;52.188;8.602;2022-08-21T17:00:19;25.79;38.87
66740;DHT22;53653;52.188;8.602;2022-08-21T17:02:50;25.77;38.87
66740;DHT22;53653;52.188;8.602;2022-08-21T17:05:18;25.72;38.93
66740;DHT22;53653;52.188;8.602;2022-08-21T17:07:44;25.59;39.25
66740;DHT22;53653;52.188;8.602;2022-08-21T17:10:12;25.50;39.66
66740;DHT22;53653;52.188;8.602;2022-08-21T17:12:40;25.39;39.28
66740;DHT22;53653;52.188;8.602;2022-08-21T17:15:12;25.32;39.56
66740;DHT22;53653;52.188;8.602;2022-08-21T17:17:39;25.19;39.58
66740;DHT22;53653;52.188;8.602;2022-08-21T17:20:05;25.11;40.02